createdAt,value
2023-01-18T00:00:32.408Z,41.35
2023-01-18T00:05:54.805Z,38.25
2023-01-18T00:11:16.882Z,42.60
2023-01-18T00:16:38.776Z,45.10
2023-01-18T00:22:00.762Z,39.83
2023-01-18T00:27:22.597Z,44.03
2023-01-18T00:32:45.367Z,50.65
2023-01-18T00:38:07.287Z,43.28
2023-01-18T00:43:29.202Z,44.08
2023-01-18T00:48:52.266Z,48.72
2023-01-18T00:54:14.166Z,49.78
2023-01-18T00:59:36.043Z,48.85
2023-01-18T01:04:57.859Z,48.60
2023-01-18T01:10:19.764Z,44.70
2023-01-18T01:15:41.660Z,48.42
2023-01-18T01:21:04.553Z,47.83
2023-01-18T01:26:26.391Z,48.72
2023-01-18T01:31:48.256Z,53.22
2023-01-18T01:37:10.083Z,49.67
2023-01-18T01:42:31.940Z,45.92
2023-01-18T01:47:55.288Z,47.53
2023-01-18T01:53:17.149Z,52.35
2023-01-18T01:58:40.039Z,46.10
2023-01-18T02:04:02.965Z,46.00
2023-01-18T02:09:24.994Z,42.35
2023-01-18T02:14:47.186Z,43.03
2023-01-18T02:20:42.396Z,42.15
2023-01-18T02:26:17.812Z,40.43
2023-01-18T02:31:56.857Z,41.43
2023-01-18T02:37:33.698Z,35.85
2023-01-18T02:43:00.865Z,37.13
2023-01-18T02:48:24.727Z,34.55
2023-01-18T02:53:48.732Z,31.80
2023-01-18T02:59:33.408Z,30.15
2023-01-18T03:04:55.824Z,31.23
2023-01-18T03:10:17.878Z,34.03
2023-01-18T03:15:42.629Z,29.45
2023-01-18T03:21:06.538Z,31.58
2023-01-18T03:26:28.676Z,29.63
2023-01-18T03:32:04.907Z,29.48
2023-01-18T03:37:31.520Z,29.65
2023-01-18T03:43:08.438Z,29.52
2023-01-18T03:48:32.541Z,31.02
2023-01-18T03:54:29.047Z,30.98
2023-01-18T03:59:51.795Z,33.65
2023-01-18T04:05:14.236Z,34.03
2023-01-18T04:10:36.079Z,34.95
2023-01-18T04:15:57.923Z,35.15
2023-01-18T04:21:19.782Z,32.17
2023-01-18T04:26:41.669Z,35.58
2023-01-18T04:32:04.498Z,38.95
2023-01-18T04:37:26.556Z,35.20
2023-01-18T04:42:52.892Z,36.28
2023-01-18T04:53:36.479Z,39.20
2023-01-18T04:58:58.344Z,40.63
2023-01-18T05:04:20.826Z,38.58
2023-01-18T05:09:42.705Z,37.35
2023-01-18T05:15:05.204Z,38.75
2023-01-18T05:20:27.129Z,39.65
2023-01-18T05:25:53.908Z,39.70
2023-01-18T05:31:17.547Z,43.50
2023-01-18T05:36:39.450Z,39.55
2023-01-18T05:42:01.701Z,41.58
2023-01-18T05:47:23.557Z,38.13
2023-01-18T05:52:45.379Z,38.85
2023-01-18T05:58:07.729Z,36.85
2023-01-18T06:03:29.666Z,33.45
2023-01-18T06:08:51.761Z,28.35
2023-01-18T06:14:13.687Z,26.55
2023-01-18T06:19:36.162Z,25.25
2023-01-18T06:24:58.422Z,26.02
2023-01-18T06:30:20.855Z,20.65
2023-01-18T06:35:43.203Z,21.67
2023-01-18T06:41:05.210Z,22.05
2023-01-18T06:46:27.053Z,23.13
2023-01-18T06:51:49.085Z,22.77
2023-01-18T06:57:11.531Z,18.40
2023-01-18T07:02:33.961Z,20.70
2023-01-18T07:07:55.796Z,18.20
2023-01-18T07:13:17.663Z,18.88
2023-01-18T07:18:39.641Z,16.02
2023-01-18T07:24:01.541Z,14.05
2023-01-18T07:29:23.440Z,14.35
2023-01-18T07:34:45.396Z,11.88
2023-01-18T07:40:08.086Z,13.43
2023-01-18T07:45:30.303Z,11.02
2023-01-18T07:50:57.266Z,9.68
2023-01-18T07:56:19.186Z,10.27
2023-01-18T08:01:41.141Z,9.25
2023-01-18T08:07:03.084Z,9.75
2023-01-18T08:12:24.986Z,7.35
2023-01-18T08:17:46.844Z,9.43
2023-01-18T08:23:08.991Z,9.70
2023-01-18T08:28:31.368Z,8.30
2023-01-18T08:33:53.502Z,7.35
2023-01-18T08:39:15.381Z,8.38
2023-01-18T08:44:37.214Z,9.02
2023-01-18T08:49:59.186Z,8.35
2023-01-18T08:55:22.507Z,7.10
2023-01-18T09:00:44.402Z,6.13
2023-01-18T09:06:07.136Z,6.07
2023-01-18T09:11:29.195Z,5.88
2023-01-18T09:16:51.087Z,6.75
2023-01-18T09:22:13.063Z,5.03
2023-01-18T09:27:34.955Z,3.28
2023-01-18T09:32:58.517Z,7.07
2023-01-18T09:38:20.737Z,4.20
2023-01-18T09:43:50.109Z,3.35
2023-01-18T09:49:21.763Z,3.67
2023-01-18T09:55:02.367Z,2.85
2023-01-18T10:00:26.040Z,4.10
2023-01-18T10:06:02.624Z,4.07
2023-01-18T10:11:30.204Z,3.60
2023-01-18T10:16:59.097Z,3.78
2023-01-18T10:22:37.759Z,3.75
2023-01-18T10:28:08.555Z,4.00
2023-01-18T10:33:35.781Z,3.83
2023-01-18T10:39:00.190Z,4.38
2023-01-18T10:44:22.087Z,3.67
2023-01-18T10:49:46.028Z,4.20
2023-01-18T10:55:15.390Z,4.00
2023-01-18T11:00:37.397Z,4.40
2023-01-18T11:06:06.967Z,3.38
2023-01-18T11:11:32.754Z,6.65
2023-01-18T11:17:12.735Z,4.53
2023-01-18T11:22:35.494Z,4.60
2023-01-18T11:28:02.473Z,5.47
2023-01-18T11:33:27.348Z,8.55
2023-01-18T11:38:49.228Z,7.38
2023-01-18T11:44:25.083Z,5.63
2023-01-18T11:49:55.001Z,4.90
2023-01-18T11:55:40.793Z,4.85
2023-01-18T12:01:24.779Z,6.20
2023-01-18T12:06:55.165Z,5.40
2023-01-18T12:12:45.416Z,3.67
2023-01-18T12:18:14.033Z,4.82
2023-01-18T12:23:54.584Z,5.03
2023-01-18T12:29:46.808Z,5.28
2023-01-18T12:35:30.480Z,3.53
2023-01-18T12:41:01.879Z,4.95
2023-01-18T12:46:33.293Z,3.97
2023-01-18T12:52:17.650Z,3.25
2023-01-18T12:57:40.671Z,3.93
2023-01-18T13:03:09.710Z,3.65
2023-01-18T13:08:44.579Z,4.25
2023-01-18T13:14:07.247Z,4.57
2023-01-18T13:19:44.440Z,3.70
2023-01-18T13:25:24.158Z,4.20
2023-01-18T13:30:59.969Z,5.45
2023-01-18T13:42:08.391Z,5.32
2023-01-18T13:47:36.272Z,6.65
2023-01-18T13:53:13.228Z,4.20
2023-01-18T13:58:36.153Z,6.60
2023-01-18T14:04:07.142Z,5.45
2023-01-18T14:09:46.094Z,4.10
2023-01-18T14:15:24.394Z,5.45
2023-01-18T14:21:00.749Z,5.65
2023-01-18T14:31:55.647Z,7.95
2023-01-18T14:37:27.764Z,8.48
2023-01-18T14:42:49.565Z,6.63
2023-01-18T14:48:16.587Z,6.47
2023-01-18T14:53:47.317Z,8.02
2023-01-18T14:59:24.909Z,6.07
2023-01-18T15:04:46.772Z,6.18
2023-01-18T15:10:10.529Z,6.70
2023-01-18T15:15:40.834Z,6.65
2023-01-18T15:21:05.218Z,7.65
2023-01-18T15:26:35.025Z,5.22
2023-01-18T15:31:57.938Z,6.22
2023-01-18T15:37:33.886Z,5.88
2023-01-18T15:42:58.403Z,6.88
2023-01-18T15:48:23.012Z,7.50
2023-01-18T15:53:48.598Z,7.65
2023-01-18T15:59:10.811Z,6.65
2023-01-18T16:04:33.538Z,8.65
2023-01-18T16:10:17.102Z,7.85
2023-01-18T16:15:39.416Z,9.00
2023-01-18T16:21:09.276Z,8.82
2023-01-18T16:26:31.254Z,11.02
2023-01-18T16:32:21.864Z,12.75
2023-01-18T16:37:44.085Z,12.82
2023-01-18T16:43:18.518Z,13.93
2023-01-18T16:48:40.423Z,14.88
2023-01-18T16:54:02.256Z,15.30
2023-01-18T16:59:24.096Z,16.92
2023-01-18T17:04:45.937Z,17.15
2023-01-18T17:10:19.045Z,17.98
2023-01-18T17:15:41.072Z,18.92
2023-01-18T17:21:02.966Z,21.67
2023-01-18T17:26:24.851Z,21.50
2023-01-18T17:31:55.015Z,18.92
2023-01-18T17:37:16.915Z,19.65
2023-01-18T17:42:38.791Z,20.15
2023-01-18T17:48:01.367Z,18.45
2023-01-18T17:53:23.242Z,19.35
2023-01-18T17:58:46.917Z,23.50
2023-01-18T18:04:08.787Z,24.73
2023-01-18T18:09:31.128Z,22.85
2023-01-18T18:14:52.983Z,28.15
2023-01-18T18:20:15.275Z,26.13
2023-01-18T18:25:37.707Z,25.30
2023-01-18T18:31:00.546Z,29.50
2023-01-18T18:36:22.507Z,28.55
2023-01-18T18:41:44.910Z,31.83
2023-01-18T18:47:07.587Z,33.10
2023-01-18T18:52:29.508Z,30.05
2023-01-18T18:57:51.518Z,29.63
2023-01-18T19:03:13.726Z,32.10
2023-01-18T19:08:35.699Z,33.50
2023-01-18T19:13:57.576Z,30.27
2023-01-18T19:19:20.342Z,33.97
2023-01-18T19:24:42.252Z,35.15
2023-01-18T19:30:04.571Z,36.17
2023-01-18T19:35:27.095Z,40.17
2023-01-18T19:40:49.036Z,41.30
2023-01-18T19:46:12.624Z,43.10
2023-01-18T19:51:34.834Z,40.83
2023-01-18T19:56:56.753Z,44.58
2023-01-18T20:02:19.062Z,40.70
2023-01-18T20:07:41.100Z,41.38
2023-01-18T20:13:03.312Z,40.50
2023-01-18T20:18:26.704Z,40.80
2023-01-18T20:23:48.588Z,41.13
2023-01-18T20:29:10.644Z,38.28
2023-01-18T20:34:34.084Z,40.38
2023-01-18T20:39:56.229Z,37.70
2023-01-18T20:45:18.092Z,39.50
2023-01-18T20:50:40.891Z,32.67
2023-01-18T20:56:05.215Z,30.88
2023-01-18T21:01:27.913Z,32.05
2023-01-18T21:06:49.948Z,30.77
2023-01-18T21:12:11.916Z,31.40
2023-01-18T21:17:33.806Z,32.08
2023-01-18T21:22:59.954Z,31.23
2023-01-18T21:28:22.827Z,35.38
2023-01-18T21:33:44.712Z,34.17
2023-01-18T21:39:06.644Z,31.52
2023-01-18T21:44:28.956Z,32.25
2023-01-18T21:50:16.593Z,31.50
2023-01-18T21:55:33.270Z,28.30
2023-01-18T22:00:55.191Z,30.15
2023-01-18T22:06:17.138Z,28.08
2023-01-18T22:11:39.128Z,29.73
2023-01-18T22:17:01.020Z,26.63
2023-01-18T22:22:23.913Z,28.30
2023-01-18T22:27:46.136Z,28.88
2023-01-18T22:33:08.369Z,27.67
2023-01-18T22:38:31.448Z,33.58
2023-01-18T22:43:54.603Z,32.67
2023-01-18T22:49:16.593Z,33.55
2023-01-18T22:54:38.476Z,37.55
2023-01-18T23:00:00.359Z,33.75
2023-01-18T23:05:22.257Z,33.47
2023-01-18T23:10:44.200Z,30.60
2023-01-18T23:16:08.670Z,31.17
2023-01-18T23:21:30.552Z,36.38
2023-01-18T23:26:52.474Z,31.77
2023-01-18T23:32:14.401Z,33.20
2023-01-18T23:37:36.293Z,33.08
2023-01-18T23:42:58.137Z,34.13
2023-01-18T23:48:20.311Z,33.40
2023-01-18T23:53:42.264Z,35.67
2023-01-18T23:59:04.110Z,31.73
